sensor_id;sensor_type;location;lat;lon;timestamp;P1;durP1;ratioP1;P2;durP2;ratioP2
30247;SDS011;17063;50.892;4.702;2023-06-26T00:01:32;6.80;;;3.87;;
30247;SDS011;17063;50.892;4.702;2023-06-26T00:03:59;5.50;;;3.90;;
30247;SDS011;17063;50.892;4.702;2023-06-26T00:06:27;6.37;;;3.53;;
30247;SDS011;17063;50.892;4.702;2023-06-26T00:08:54;4.73;;;4.00;;
30247;SDS011;17063;50.892;4.702;2023-06-26T00:11:22;7.10;;;4.10;;
30247;SDS011;17063;50.892;4.702;2023-06-26T00:13:49;5.50;;;4.10;;
30247;SDS011;17063;50.892;4.702;2023-06-26T00:16:15;7.33;;;4.07;;
30247;SDS011;17063;50.892;4.702;2023-06-26T00:18:42;5.43;;;3.97;;
30247;SDS011;17063;50.892;4.702;2023-06-26T00:21:09;4.80;;;3.97;;
30247;SDS011;17063;50.892;4.702;2023-06-26T00:23:36;8.17;;;3.77;;
30247;SDS011;17063;50.892;4.702;2023-06-26T00:26:06;3.70;;;3.30;;
30247;SDS011;17063;50.892;4.702;2023-06-26T00:28:33;6.37;;;3.33;;
30247;SDS011;17063;50.892;4.702;2023-06-26T00:31:00;8.80;;;3.13;;
30247;SDS011;17063;50.892;4.702;2023-06-26T00:33:28;7.43;;;3.20;;
30247;SDS011;17063;50.892;4.702;2023-06-26T00:35:56;6.57;;;4.10;;
30247;SDS011;17063;50.892;4.702;2023-06-26T00:38:23;4.20;;;3.27;;
30247;SDS011;17063;50.892;4.702;2023-06-26T00:40:50;4.70;;;3.33;;
30247;SDS011;17063;50.892;4.702;2023-06-26T00:43:18;7.67;;;3.83;;
30247;SDS011;17063;50.892;4.702;2023-06-26T00:45:47;3.93;;;3.50;;
30247;SDS011;17063;50.892;4.702;2023-06-26T00:48:13;7.27;;;3.60;;
30247;SDS011;17063;50.892;4.702;2023-06-26T00:50:41;4.87;;;3.67;;
30247;SDS011;17063;50.892;4.702;2023-06-26T00:53:11;5.73;;;3.77;;
30247;SDS011;17063;50.892;4.702;2023-06-26T00:55:38;6.93;;;3.80;;
30247;SDS011;17063;50.892;4.702;2023-06-26T00:58:05;6.00;;;3.93;;
30247;SDS011;17063;50.892;4.702;2023-06-26T01:00:32;7.10;;;3.70;;
30247;SDS011;17063;50.892;4.702;2023-06-26T01:02:58;4.27;;;3.60;;
30247;SDS011;17063;50.892;4.702;2023-06-26T01:05:27;6.33;;;3.63;;
30247;SDS011;17063;50.892;4.702;2023-06-26T01:07:55;7.93;;;3.70;;
30247;SDS011;17063;50.892;4.702;2023-06-26T01:10:24;8.87;;;3.50;;
30247;SDS011;17063;50.892;4.702;2023-06-26T01:12:52;4.77;;;3.17;;
30247;SDS011;17063;50.892;4.702;2023-06-26T01:15:19;4.77;;;3.47;;
30247;SDS011;17063;50.892;4.702;2023-06-26T01:17:45;5.67;;;3.40;;
30247;SDS011;17063;50.892;4.702;2023-06-26T01:20:13;3.80;;;3.10;;
30247;SDS011;17063;50.892;4.702;2023-06-26T01:22:47;4.03;;;3.17;;
30247;SDS011;17063;50.892;4.702;2023-06-26T01:27:48;6.50;;;3.20;;
30247;SDS011;17063;50.892;4.702;2023-06-26T01:30:16;3.73;;;3.13;;
30247;SDS011;17063;50.892;4.702;2023-06-26T01:32:44;6.07;;;3.03;;
30247;SDS011;17063;50.892;4.702;2023-06-26T01:35:12;7.03;;;3.17;;
30247;SDS011;17063;50.892;4.702;2023-06-26T01:37:39;4.47;;;2.97;;
30247;SDS011;17063;50.892;4.702;2023-06-26T01:40:07;6.43;;;3.50;;
30247;SDS011;17063;50.892;4.702;2023-06-26T01:42:34;6.07;;;3.13;;
30247;SDS011;17063;50.892;4.702;2023-06-26T01:45:05;4.23;;;2.90;;
30247;SDS011;17063;50.892;4.702;2023-06-26T01:47:37;4.43;;;2.97;;
30247;SDS011;17063;50.892;4.702;2023-06-26T01:50:11;4.67;;;2.83;;
30247;SDS011;17063;50.892;4.702;2023-06-26T01:55:53;4.73;;;2.73;;
30247;SDS011;17063;50.892;4.702;2023-06-26T01:58:22;3.40;;;2.43;;
30247;SDS011;17063;50.892;4.702;2023-06-26T02:00:50;5.73;;;2.93;;
30247;SDS011;17063;50.892;4.702;2023-06-26T02:03:17;4.77;;;3.10;;
30247;SDS011;17063;50.892;4.702;2023-06-26T02:05:44;5.23;;;2.90;;
30247;SDS011;17063;50.892;4.702;2023-06-26T02:08:13;4.83;;;2.73;;
30247;SDS011;17063;50.892;4.702;2023-06-26T02:10:47;4.40;;;2.80;;
30247;SDS011;17063;50.892;4.702;2023-06-26T02:13:15;5.90;;;2.97;;
30247;SDS011;17063;50.892;4.702;2023-06-26T02:15:42;3.63;;;2.60;;
30247;SDS011;17063;50.892;4.702;2023-06-26T02:18:09;6.70;;;2.93;;
30247;SDS011;17063;50.892;4.702;2023-06-26T02:20:36;5.87;;;2.73;;
30247;SDS011;17063;50.892;4.702;2023-06-26T02:23:04;3.90;;;2.57;;
30247;SDS011;17063;50.892;4.702;2023-06-26T02:25:31;3.57;;;2.50;;
30247;SDS011;17063;50.892;4.702;2023-06-26T02:27:57;2.63;;;2.20;;
30247;SDS011;17063;50.892;4.702;2023-06-26T02:30:25;6.97;;;2.47;;
30247;SDS011;17063;50.892;4.702;2023-06-26T02:32:51;4.07;;;2.70;;
30247;SDS011;17063;50.892;4.702;2023-06-26T02:35:18;3.73;;;2.60;;
30247;SDS011;17063;50.892;4.702;2023-06-26T02:37:45;3.83;;;2.53;;
30247;SDS011;17063;50.892;4.702;2023-06-26T02:40:12;4.33;;;2.60;;
30247;SDS011;17063;50.892;4.702;2023-06-26T02:42:40;5.73;;;2.97;;
30247;SDS011;17063;50.892;4.702;2023-06-26T02:45:08;5.97;;;2.80;;
30247;SDS011;17063;50.892;4.702;2023-06-26T02:47:35;6.33;;;3.20;;
30247;SDS011;17063;50.892;4.702;2023-06-26T02:50:08;5.10;;;3.07;;
30247;SDS011;17063;50.892;4.702;2023-06-26T02:52:55;8.70;;;2.87;;
30247;SDS011;17063;50.892;4.702;2023-06-26T02:55:22;3.80;;;2.57;;
30247;SDS011;17063;50.892;4.702;2023-06-26T02:57:50;8.00;;;2.70;;
30247;SDS011;17063;50.892;4.702;2023-06-26T03:00:18;4.37;;;3.03;;
30247;SDS011;17063;50.892;4.702;2023-06-26T03:02:48;6.00;;;2.60;;
30247;SDS011;17063;50.892;4.702;2023-06-26T03:05:18;8.40;;;3.33;;
30247;SDS011;17063;50.892;4.702;2023-06-26T03:07:46;4.70;;;2.70;;
30247;SDS011;17063;50.892;4.702;2023-06-26T03:10:13;5.10;;;2.93;;
30247;SDS011;17063;50.892;4.702;2023-06-26T03:12:41;6.87;;;2.77;;
30247;SDS011;17063;50.892;4.702;2023-06-26T03:15:09;5.23;;;2.90;;
30247;SDS011;17063;50.892;4.702;2023-06-26T03:17:38;9.13;;;3.23;;
30247;SDS011;17063;50.892;4.702;2023-06-26T03:20:11;4.13;;;2.77;;
30247;SDS011;17063;50.892;4.702;2023-06-26T03:22:45;6.93;;;2.57;;
30247;SDS011;17063;50.892;4.702;2023-06-26T03:25:13;8.00;;;2.90;;
30247;SDS011;17063;50.892;4.702;2023-06-26T03:27:40;7.87;;;2.67;;
30247;SDS011;17063;50.892;4.702;2023-06-26T03:30:07;6.77;;;3.00;;
30247;SDS011;17063;50.892;4.702;2023-06-26T03:32:37;8.47;;;3.60;;
30247;SDS011;17063;50.892;4.702;2023-06-26T03:35:05;6.63;;;3.03;;
30247;SDS011;17063;50.892;4.702;2023-06-26T03:37:33;6.13;;;3.20;;
30247;SDS011;17063;50.892;4.702;2023-06-26T03:40:00;10.57;;;3.37;;
30247;SDS011;17063;50.892;4.702;2023-06-26T03:42:27;7.50;;;3.00;;
30247;SDS011;17063;50.892;4.702;2023-06-26T03:44:54;7.53;;;2.87;;
30247;SDS011;17063;50.892;4.702;2023-06-26T03:47:21;6.80;;;2.87;;
30247;SDS011;17063;50.892;4.702;2023-06-26T03:49:48;11.57;;;3.27;;
30247;SDS011;17063;50.892;4.702;2023-06-26T03:52:15;6.43;;;3.20;;
30247;SDS011;17063;50.892;4.702;2023-06-26T03:54:42;7.27;;;3.00;;
30247;SDS011;17063;50.892;4.702;2023-06-26T03:57:09;11.13;;;3.33;;
30247;SDS011;17063;50.892;4.702;2023-06-26T03:59:36;8.23;;;3.40;;
30247;SDS011;17063;50.892;4.702;2023-06-26T04:02:03;14.27;;;4.07;;
30247;SDS011;17063;50.892;4.702;2023-06-26T04:04:30;8.50;;;2.87;;
30247;SDS011;17063;50.892;4.702;2023-06-26T04:06:58;10.23;;;2.90;;
30247;SDS011;17063;50.892;4.702;2023-06-26T04:09:27;11.23;;;3.03;;
30247;SDS011;17063;50.892;4.702;2023-06-26T04:11:54;9.17;;;3.03;;
30247;SDS011;17063;50.892;4.702;2023-06-26T04:14:21;11.07;;;3.40;;
30247;SDS011;17063;50.892;4.702;2023-06-26T04:16:48;13.00;;;3.70;;
30247;SDS011;17063;50.892;4.702;2023-06-26T04:19:15;10.17;;;3.60;;
30247;SDS011;17063;50.892;4.702;2023-06-26T04:21:41;7.27;;;3.20;;
30247;SDS011;17063;50.892;4.702;2023-06-26T04:24:08;11.37;;;3.40;;
30247;SDS011;17063;50.892;4.702;2023-06-26T04:26:35;14.73;;;3.07;;
30247;SDS011;17063;50.892;4.702;2023-06-26T04:29:03;8.90;;;3.20;;
30247;SDS011;17063;50.892;4.702;2023-06-26T04:31:30;10.83;;;3.33;;
30247;SDS011;17063;50.892;4.702;2023-06-26T04:33:57;10.47;;;2.93;;
30247;SDS011;17063;50.892;4.702;2023-06-26T04:36:25;11.87;;;3.30;;
30247;SDS011;17063;50.892;4.702;2023-06-26T04:38:55;11.97;;;3.67;;
30247;SDS011;17063;50.892;4.702;2023-06-26T04:41:22;10.93;;;2.90;;
30247;SDS011;17063;50.892;4.702;2023-06-26T04:43:49;10.27;;;3.33;;
30247;SDS011;17063;50.892;4.702;2023-06-26T04:46:16;12.90;;;2.90;;
30247;SDS011;17063;50.892;4.702;2023-06-26T04:48:43;13.27;;;3.37;;
30247;SDS011;17063;50.892;4.702;2023-06-26T04:51:11;12.33;;;3.03;;
30247;SDS011;17063;50.892;4.702;2023-06-26T04:53:38;8.80;;;2.83;;
30247;SDS011;17063;50.892;4.702;2023-06-26T04:56:05;8.60;;;2.53;;
30247;SDS011;17063;50.892;4.702;2023-06-26T04:58:31;10.27;;;2.80;;
30247;SDS011;17063;50.892;4.702;2023-06-26T05:00:58;8.53;;;3.20;;
30247;SDS011;17063;50.892;4.702;2023-06-26T05:03:25;10.93;;;3.20;;
30247;SDS011;17063;50.892;4.702;2023-06-26T05:05:53;8.77;;;3.13;;
30247;SDS011;17063;50.892;4.702;2023-06-26T05:08:22;12.53;;;3.17;;
30247;SDS011;17063;50.892;4.702;2023-06-26T05:10:50;13.43;;;3.50;;
30247;SDS011;17063;50.892;4.702;2023-06-26T05:13:17;9.97;;;2.83;;
30247;SDS011;17063;50.892;4.702;2023-06-26T05:15:46;10.47;;;2.83;;
30247;SDS011;17063;50.892;4.702;2023-06-26T05:18:13;9.60;;;2.83;;
30247;SDS011;17063;50.892;4.702;2023-06-26T05:20:40;8.60;;;3.23;;
30247;SDS011;17063;50.892;4.702;2023-06-26T05:23:07;7.67;;;2.60;;
30247;SDS011;17063;50.892;4.702;2023-06-26T05:25:34;14.53;;;3.10;;
30247;SDS011;17063;50.892;4.702;2023-06-26T05:28:01;16.80;;;3.43;;
30247;SDS011;17063;50.892;4.702;2023-06-26T05:30:28;16.00;;;3.63;;
30247;SDS011;17063;50.892;4.702;2023-06-26T05:32:59;12.57;;;3.17;;
30247;SDS011;17063;50.892;4.702;2023-06-26T05:35:30;7.40;;;2.73;;
30247;SDS011;17063;50.892;4.702;2023-06-26T05:37:58;12.77;;;3.00;;
30247;SDS011;17063;50.892;4.702;2023-06-26T05:40:25;9.37;;;2.73;;
30247;SDS011;17063;50.892;4.702;2023-06-26T05:42:52;8.87;;;2.67;;
30247;SDS011;17063;50.892;4.702;2023-06-26T05:45:19;12.57;;;2.53;;
30247;SDS011;17063;50.892;4.702;2023-06-26T05:47:46;7.73;;;2.70;;
30247;SDS011;17063;50.892;4.702;2023-06-26T05:50:13;7.97;;;2.60;;
30247;SDS011;17063;50.892;4.702;2023-06-26T05:52:40;7.77;;;2.70;;
30247;SDS011;17063;50.892;4.702;2023-06-26T05:55:08;7.07;;;2.30;;
30247;SDS011;17063;50.892;4.702;2023-06-26T05:57:36;11.73;;;2.77;;
30247;SDS011;17063;50.892;4.702;2023-06-26T06:00:04;8.67;;;2.60;;
30247;SDS011;17063;50.892;4.702;2023-06-26T06:02:40;10.13;;;2.40;;
30247;SDS011;17063;50.892;4.702;2023-06-26T06:05:08;7.87;;;2.57;;
30247;SDS011;17063;50.892;4.702;2023-06-26T06:07:35;7.83;;;2.37;;
30247;SDS011;17063;50.892;4.702;2023-06-26T06:10:03;11.27;;;2.60;;
30247;SDS011;17063;50.892;4.702;2023-06-26T06:12:30;8.97;;;2.53;;
30247;SDS011;17063;50.892;4.702;2023-06-26T06:14:57;6.97;;;2.30;;
30247;SDS011;17063;50.892;4.702;2023-06-26T06:17:24;6.00;;;2.20;;
30247;SDS011;17063;50.892;4.702;2023-06-26T06:19:51;10.93;;;3.00;;
30247;SDS011;17063;50.892;4.702;2023-06-26T06:22:18;9.57;;;2.70;;
30247;SDS011;17063;50.892;4.702;2023-06-26T06:24:45;13.43;;;3.10;;
30247;SDS011;17063;50.892;4.702;2023-06-26T06:27:13;7.33;;;2.57;;
30247;SDS011;17063;50.892;4.702;2023-06-26T06:29:41;10.27;;;2.67;;
30247;SDS011;17063;50.892;4.702;2023-06-26T06:32:07;7.10;;;2.40;;
30247;SDS011;17063;50.892;4.702;2023-06-26T06:34:34;10.10;;;2.60;;
30247;SDS011;17063;50.892;4.702;2023-06-26T06:37:03;8.00;;;2.30;;
30247;SDS011;17063;50.892;4.702;2023-06-26T06:39:30;7.00;;;2.20;;
30247;SDS011;17063;50.892;4.702;2023-06-26T06:41:57;8.07;;;2.47;;
30247;SDS011;17063;50.892;4.702;2023-06-26T06:44:26;7.90;;;2.30;;
30247;SDS011;17063;50.892;4.702;2023-06-26T06:46:52;8.97;;;1.87;;
30247;SDS011;17063;50.892;4.702;2023-06-26T06:49:19;10.67;;;2.53;;
30247;SDS011;17063;50.892;4.702;2023-06-26T06:51:46;12.53;;;2.17;;
30247;SDS011;17063;50.892;4.702;2023-06-26T06:54:15;5.73;;;2.10;;
30247;SDS011;17063;50.892;4.702;2023-06-26T06:56:42;8.57;;;2.47;;
30247;SDS011;17063;50.892;4.702;2023-06-26T06:59:10;7.83;;;2.07;;
30247;SDS011;17063;50.892;4.702;2023-06-26T07:01:37;7.07;;;2.47;;
30247;SDS011;17063;50.892;4.702;2023-06-26T07:04:05;8.60;;;2.10;;
30247;SDS011;17063;50.892;4.702;2023-06-26T07:06:32;9.20;;;2.07;;
30247;SDS011;17063;50.892;4.702;2023-06-26T07:08:59;6.40;;;2.10;;
30247;SDS011;17063;50.892;4.702;2023-06-26T07:11:26;6.90;;;1.90;;
30247;SDS011;17063;50.892;4.702;2023-06-26T07:13:54;8.33;;;2.30;;
30247;SDS011;17063;50.892;4.702;2023-06-26T07:16:21;10.47;;;1.90;;
30247;SDS011;17063;50.892;4.702;2023-06-26T07:18:48;4.43;;;1.70;;
30247;SDS011;17063;50.892;4.702;2023-06-26T07:21:16;10.37;;;2.20;;
30247;SDS011;17063;50.892;4.702;2023-06-26T07:23:43;11.20;;;2.20;;
30247;SDS011;17063;50.892;4.702;2023-06-26T07:26:10;8.40;;;1.93;;
30247;SDS011;17063;50.892;4.702;2023-06-26T07:28:37;5.87;;;1.80;;
30247;SDS011;17063;50.892;4.702;2023-06-26T07:31:04;3.83;;;1.90;;
30247;SDS011;17063;50.892;4.702;2023-06-26T07:33:30;6.17;;;1.80;;
30247;SDS011;17063;50.892;4.702;2023-06-26T07:35:57;6.63;;;1.90;;
30247;SDS011;17063;50.892;4.702;2023-06-26T07:38:24;9.37;;;1.97;;
30247;SDS011;17063;50.892;4.702;2023-06-26T07:40:51;5.93;;;1.77;;
30247;SDS011;17063;50.892;4.702;2023-06-26T07:43:18;12.57;;;2.40;;
30247;SDS011;17063;50.892;4.702;2023-06-26T07:45:45;5.23;;;1.83;;
30247;SDS011;17063;50.892;4.702;2023-06-26T07:48:12;11.63;;;2.20;;
30247;SDS011;17063;50.892;4.702;2023-06-26T07:50:39;3.33;;;1.73;;
30247;SDS011;17063;50.892;4.702;2023-06-26T07:53:06;6.83;;;1.93;;
30247;SDS011;17063;50.892;4.702;2023-06-26T07:55:33;5.70;;;2.00;;
30247;SDS011;17063;50.892;4.702;2023-06-26T07:58:00;2.03;;;1.53;;
30247;SDS011;17063;50.892;4.702;2023-06-26T08:00:27;6.10;;;1.60;;
30247;SDS011;17063;50.892;4.702;2023-06-26T08:02:54;7.80;;;1.90;;
30247;SDS011;17063;50.892;4.702;2023-06-26T08:05:21;7.40;;;1.73;;
30247;SDS011;17063;50.892;4.702;2023-06-26T08:07:48;7.00;;;1.83;;
30247;SDS011;17063;50.892;4.702;2023-06-26T08:10:15;3.17;;;1.60;;
30247;SDS011;17063;50.892;4.702;2023-06-26T08:12:42;3.53;;;1.57;;
30247;SDS011;17063;50.892;4.702;2023-06-26T08:15:11;4.27;;;1.60;;
30247;SDS011;17063;50.892;4.702;2023-06-26T08:17:38;7.23;;;2.07;;
30247;SDS011;17063;50.892;4.702;2023-06-26T08:20:06;8.93;;;2.03;;
30247;SDS011;17063;50.892;4.702;2023-06-26T08:22:35;5.47;;;1.67;;
30247;SDS011;17063;50.892;4.702;2023-06-26T08:25:02;4.80;;;1.83;;
30247;SDS011;17063;50.892;4.702;2023-06-26T08:27:31;6.77;;;1.93;;
30247;SDS011;17063;50.892;4.702;2023-06-26T08:29:58;7.37;;;2.10;;
30247;SDS011;17063;50.892;4.702;2023-06-26T08:32:26;14.47;;;2.33;;
30247;SDS011;17063;50.892;4.702;2023-06-26T08:34:53;6.70;;;1.70;;
30247;SDS011;17063;50.892;4.702;2023-06-26T08:37:20;4.83;;;1.60;;
30247;SDS011;17063;50.892;4.702;2023-06-26T08:39:47;6.13;;;1.50;;
30247;SDS011;17063;50.892;4.702;2023-06-26T08:42:14;7.77;;;2.00;;
30247;SDS011;17063;50.892;4.702;2023-06-26T08:44:41;7.13;;;2.30;;
30247;SDS011;17063;50.892;4.702;2023-06-26T08:47:26;4.00;;;1.50;;
30247;SDS011;17063;50.892;4.702;2023-06-26T08:50:00;3.63;;;1.47;;
30247;SDS011;17063;50.892;4.702;2023-06-26T08:52:33;4.23;;;1.53;;
30247;SDS011;17063;50.892;4.702;2023-06-26T08:55:05;5.20;;;1.43;;
30247;SDS011;17063;50.892;4.702;2023-06-26T08:57:34;4.63;;;1.87;;
30247;SDS011;17063;50.892;4.702;2023-06-26T09:00:02;6.67;;;1.97;;
30247;SDS011;17063;50.892;4.702;2023-06-26T09:02:29;10.60;;;2.10;;
30247;SDS011;17063;50.892;4.702;2023-06-26T09:04:57;5.40;;;1.50;;
30247;SDS011;17063;50.892;4.702;2023-06-26T09:07:24;3.80;;;1.10;;
30247;SDS011;17063;50.892;4.702;2023-06-26T09:09:51;4.03;;;1.70;;
30247;SDS011;17063;50.892;4.702;2023-06-26T09:12:18;4.93;;;1.57;;
30247;SDS011;17063;50.892;4.702;2023-06-26T09:14:48;9.57;;;1.90;;
30247;SDS011;17063;50.892;4.702;2023-06-26T09:17:16;7.50;;;1.70;;
30247;SDS011;17063;50.892;4.702;2023-06-26T09:19:45;6.13;;;1.50;;
30247;SDS011;17063;50.892;4.702;2023-06-26T09:22:13;4.57;;;1.40;;
30247;SDS011;17063;50.892;4.702;2023-06-26T09:24:41;3.70;;;1.40;;
30247;SDS011;17063;50.892;4.702;2023-06-26T09:27:10;5.93;;;1.53;;
30247;SDS011;17063;50.892;4.702;2023-06-26T09:29:37;8.13;;;2.17;;
30247;SDS011;17063;50.892;4.702;2023-06-26T09:32:04;6.53;;;1.90;;
30247;SDS011;17063;50.892;4.702;2023-06-26T09:34:35;6.83;;;1.40;;
30247;SDS011;17063;50.892;4.702;2023-06-26T09:37:02;3.37;;;1.60;;
30247;SDS011;17063;50.892;4.702;2023-06-26T09:39:31;4.13;;;1.60;;
30247;SDS011;17063;50.892;4.702;2023-06-26T09:41:58;4.60;;;1.30;;
30247;SDS011;17063;50.892;4.702;2023-06-26T09:44:25;4.73;;;1.50;;
30247;SDS011;17063;50.892;4.702;2023-06-26T09:46:52;5.80;;;1.53;;
30247;SDS011;17063;50.892;4.702;2023-06-26T09:49:23;5.90;;;1.70;;
30247;SDS011;17063;50.892;4.702;2023-06-26T09:51:50;4.27;;;2.00;;
30247;SDS011;17063;50.892;4.702;2023-06-26T09:54:17;6.80;;;1.80;;
30247;SDS011;17063;50.892;4.702;2023-06-26T09:56:45;5.80;;;1.70;;
30247;SDS011;17063;50.892;4.702;2023-06-26T09:59:11;7.10;;;1.50;;
30247;SDS011;17063;50.892;4.702;2023-06-26T10:01:40;4.47;;;1.23;;
30247;SDS011;17063;50.892;4.702;2023-06-26T10:04:09;4.23;;;1.67;;
30247;SDS011;17063;50.892;4.702;2023-06-26T10:06:38;4.03;;;1.10;;
30247;SDS011;17063;50.892;4.702;2023-06-26T10:09:08;6.50;;;1.53;;
30247;SDS011;17063;50.892;4.702;2023-06-26T10:11:53;6.03;;;1.80;;
30247;SDS011;17063;50.892;4.702;2023-06-26T10:14:26;4.47;;;1.37;;
30247;SDS011;17063;50.892;4.702;2023-06-26T10:16:56;2.43;;;1.30;;
30247;SDS011;17063;50.892;4.702;2023-06-26T10:19:25;7.90;;;1.77;;
30247;SDS011;17063;50.892;4.702;2023-06-26T10:21:53;4.27;;;1.60;;
30247;SDS011;17063;50.892;4.702;2023-06-26T10:24:22;5.27;;;1.40;;
30247;SDS011;17063;50.892;4.702;2023-06-26T10:26:50;3.20;;;1.20;;
30247;SDS011;17063;50.892;4.702;2023-06-26T10:29:19;5.50;;;1.40;;
30247;SDS011;17063;50.892;4.702;2023-06-26T10:31:51;6.77;;;1.20;;
30247;SDS011;17063;50.892;4.702;2023-06-26T10:34:19;4.57;;;1.40;;
30247;SDS011;17063;50.892;4.702;2023-06-26T10:36:46;3.50;;;1.27;;
30247;SDS011;17063;50.892;4.702;2023-06-26T10:39:14;3.67;;;1.20;;
30247;SDS011;17063;50.892;4.702;2023-06-26T10:41:41;4.27;;;1.40;;
30247;SDS011;17063;50.892;4.702;2023-06-26T10:44:36;4.77;;;1.33;;
30247;SDS011;17063;50.892;4.702;2023-06-26T10:47:09;5.90;;;1.30;;
30247;SDS011;17063;50.892;4.702;2023-06-26T10:49:36;3.20;;;1.20;;
30247;SDS011;17063;50.892;4.702;2023-06-26T10:52:05;2.93;;;1.40;;
30247;SDS011;17063;50.892;4.702;2023-06-26T10:54:32;5.97;;;1.20;;
30247;SDS011;17063;50.892;4.702;2023-06-26T10:56:59;2.90;;;1.30;;
30247;SDS011;17063;50.892;4.702;2023-06-26T10:59:29;3.50;;;1.23;;
30247;SDS011;17063;50.892;4.702;2023-06-26T11:01:57;6.53;;;1.43;;
30247;SDS011;17063;50.892;4.702;2023-06-26T11:04:37;2.73;;;1.20;;
30247;SDS011;17063;50.892;4.702;2023-06-26T11:07:16;5.07;;;1.50;;
30247;SDS011;17063;50.892;4.702;2023-06-26T11:10:00;3.97;;;1.13;;
30247;SDS011;17063;50.892;4.702;2023-06-26T11:15:12;2.93;;;1.50;;
30247;SDS011;17063;50.892;4.702;2023-06-26T11:17:40;4.43;;;1.20;;
30247;SDS011;17063;50.892;4.702;2023-06-26T11:20:09;2.13;;;1.20;;
30247;SDS011;17063;50.892;4.702;2023-06-26T11:22:37;3.20;;;1.37;;
30247;SDS011;17063;50.892;4.702;2023-06-26T11:25:06;4.37;;;1.30;;
30247;SDS011;17063;50.892;4.702;2023-06-26T11:30:07;7.00;;;1.83;;
30247;SDS011;17063;50.892;4.702;2023-06-26T11:32:49;4.47;;;1.60;;
30247;SDS011;17063;50.892;4.702;2023-06-26T11:35:23;3.20;;;1.60;;
30247;SDS011;17063;50.892;4.702;2023-06-26T11:37:57;5.40;;;1.60;;
30247;SDS011;17063;50.892;4.702;2023-06-26T11:40:40;4.87;;;1.40;;
30247;SDS011;17063;50.892;4.702;2023-06-26T11:43:09;4.40;;;1.90;;
30247;SDS011;17063;50.892;4.702;2023-06-26T11:45:37;3.17;;;1.40;;
30247;SDS011;17063;50.892;4.702;2023-06-26T11:48:04;3.67;;;1.30;;
30247;SDS011;17063;50.892;4.702;2023-06-26T11:50:31;3.90;;;1.50;;
30247;SDS011;17063;50.892;4.702;2023-06-26T11:52:58;4.17;;;1.30;;
30247;SDS011;17063;50.892;4.702;2023-06-26T11:55:25;4.90;;;1.70;;
30247;SDS011;17063;50.892;4.702;2023-06-26T11:57:53;4.63;;;1.40;;
30247;SDS011;17063;50.892;4.702;2023-06-26T12:00:21;4.33;;;1.50;;
30247;SDS011;17063;50.892;4.702;2023-06-26T12:02:48;4.63;;;1.50;;
30247;SDS011;17063;50.892;4.702;2023-06-26T12:05:16;3.27;;;1.40;;
30247;SDS011;17063;50.892;4.702;2023-06-26T12:07:45;3.90;;;1.40;;
30247;SDS011;17063;50.892;4.702;2023-06-26T12:10:14;3.00;;;1.10;;
30247;SDS011;17063;50.892;4.702;2023-06-26T12:12:42;4.20;;;2.00;;
30247;SDS011;17063;50.892;4.702;2023-06-26T12:15:10;4.20;;;1.80;;
30247;SDS011;17063;50.892;4.702;2023-06-26T12:17:40;4.20;;;1.77;;
30247;SDS011;17063;50.892;4.702;2023-06-26T12:20:20;3.60;;;1.73;;
30247;SDS011;17063;50.892;4.702;2023-06-26T12:22:49;6.87;;;1.67;;
30247;SDS011;17063;50.892;4.702;2023-06-26T12:25:20;4.47;;;1.70;;
30247;SDS011;17063;50.892;4.702;2023-06-26T12:27:49;5.77;;;1.30;;
30247;SDS011;17063;50.892;4.702;2023-06-26T12:30:16;4.40;;;1.50;;
30247;SDS011;17063;50.892;4.702;2023-06-26T12:32:46;3.47;;;1.70;;
30247;SDS011;17063;50.892;4.702;2023-06-26T12:35:13;4.00;;;1.63;;
30247;SDS011;17063;50.892;4.702;2023-06-26T12:37:44;2.77;;;1.40;;
30247;SDS011;17063;50.892;4.702;2023-06-26T12:40:16;5.40;;;1.33;;
30247;SDS011;17063;50.892;4.702;2023-06-26T12:42:45;4.87;;;1.43;;
30247;SDS011;17063;50.892;4.702;2023-06-26T12:45:14;8.13;;;1.90;;
30247;SDS011;17063;50.892;4.702;2023-06-26T12:48:06;4.53;;;1.40;;
30247;SDS011;17063;50.892;4.702;2023-06-26T12:50:42;3.50;;;1.20;;
30247;SDS011;17063;50.892;4.702;2023-06-26T12:53:11;4.60;;;1.40;;
30247;SDS011;17063;50.892;4.702;2023-06-26T12:55:39;2.87;;;1.30;;
30247;SDS011;17063;50.892;4.702;2023-06-26T12:58:06;3.63;;;1.40;;
30247;SDS011;17063;50.892;4.702;2023-06-26T13:00:36;3.13;;;1.33;;
30247;SDS011;17063;50.892;4.702;2023-06-26T13:03:04;3.57;;;1.50;;
30247;SDS011;17063;50.892;4.702;2023-06-26T13:05:34;4.80;;;1.53;;
30247;SDS011;17063;50.892;4.702;2023-06-26T13:08:01;3.67;;;1.23;;
30247;SDS011;17063;50.892;4.702;2023-06-26T13:10:30;3.97;;;1.40;;
30247;SDS011;17063;50.892;4.702;2023-06-26T13:12:56;5.17;;;1.70;;
30247;SDS011;17063;50.892;4.702;2023-06-26T13:15:23;2.37;;;1.40;;
30247;SDS011;17063;50.892;4.702;2023-06-26T13:17:53;6.23;;;1.40;;
30247;SDS011;17063;50.892;4.702;2023-06-26T13:20:20;2.63;;;1.37;;
30247;SDS011;17063;50.892;4.702;2023-06-26T13:22:47;5.23;;;1.77;;
30247;SDS011;17063;50.892;4.702;2023-06-26T13:25:14;4.27;;;1.47;;
30247;SDS011;17063;50.892;4.702;2023-06-26T13:27:44;3.93;;;1.43;;
30247;SDS011;17063;50.892;4.702;2023-06-26T13:30:13;2.23;;;1.67;;
30247;SDS011;17063;50.892;4.702;2023-06-26T13:32:43;6.53;;;1.37;;
30247;SDS011;17063;50.892;4.702;2023-06-26T13:35:10;2.77;;;1.43;;
30247;SDS011;17063;50.892;4.702;2023-06-26T13:37:37;2.77;;;1.50;;
30247;SDS011;17063;50.892;4.702;2023-06-26T13:40:04;3.37;;;1.53;;
30247;SDS011;17063;50.892;4.702;2023-06-26T13:42:36;3.93;;;1.43;;
30247;SDS011;17063;50.892;4.702;2023-06-26T13:45:04;3.00;;;1.40;;
30247;SDS011;17063;50.892;4.702;2023-06-26T13:47:51;5.47;;;1.73;;
30247;SDS011;17063;50.892;4.702;2023-06-26T13:50:20;2.93;;;1.33;;
30247;SDS011;17063;50.892;4.702;2023-06-26T13:52:47;4.60;;;1.60;;
30247;SDS011;17063;50.892;4.702;2023-06-26T13:55:15;5.63;;;1.90;;
30247;SDS011;17063;50.892;4.702;2023-06-26T13:57:42;5.40;;;1.50;;
30247;SDS011;17063;50.892;4.702;2023-06-26T14:00:12;8.53;;;1.43;;
30247;SDS011;17063;50.892;4.702;2023-06-26T14:02:46;4.53;;;1.53;;
30247;SDS011;17063;50.892;4.702;2023-06-26T14:05:13;5.03;;;1.70;;
30247;SDS011;17063;50.892;4.702;2023-06-26T14:07:40;2.87;;;1.40;;
30247;SDS011;17063;50.892;4.702;2023-06-26T14:10:10;1.77;;;1.13;;
30247;SDS011;17063;50.892;4.702;2023-06-26T14:12:37;4.53;;;1.50;;
30247;SDS011;17063;50.892;4.702;2023-06-26T14:15:05;4.47;;;1.70;;
30247;SDS011;17063;50.892;4.702;2023-06-26T14:17:32;5.13;;;1.60;;
30247;SDS011;17063;50.892;4.702;2023-06-26T14:19:59;3.30;;;1.37;;
30247;SDS011;17063;50.892;4.702;2023-06-26T14:22:26;6.57;;;1.70;;
30247;SDS011;17063;50.892;4.702;2023-06-26T14:24:53;5.27;;;1.30;;
30247;SDS011;17063;50.892;4.702;2023-06-26T14:27:19;3.73;;;1.20;;
30247;SDS011;17063;50.892;4.702;2023-06-26T14:29:46;6.27;;;1.60;;
30247;SDS011;17063;50.892;4.702;2023-06-26T14:32:13;3.93;;;1.73;;
30247;SDS011;17063;50.892;4.702;2023-06-26T14:34:40;4.47;;;1.43;;
30247;SDS011;17063;50.892;4.702;2023-06-26T14:37:07;4.20;;;1.47;;
30247;SDS011;17063;50.892;4.702;2023-06-26T14:39:34;5.93;;;1.50;;
30247;SDS011;17063;50.892;4.702;2023-06-26T14:42:01;8.30;;;1.60;;
30247;SDS011;17063;50.892;4.702;2023-06-26T14:44:29;4.47;;;1.77;;
30247;SDS011;17063;50.892;4.702;2023-06-26T14:46:56;2.80;;;1.33;;
30247;SDS011;17063;50.892;4.702;2023-06-26T14:49:51;2.50;;;1.33;;
30247;SDS011;17063;50.892;4.702;2023-06-26T14:52:18;5.90;;;1.30;;
30247;SDS011;17063;50.892;4.702;2023-06-26T14:54:45;4.20;;;1.70;;
30247;SDS011;17063;50.892;4.702;2023-06-26T14:57:12;3.77;;;1.40;;
30247;SDS011;17063;50.892;4.702;2023-06-26T14:59:39;8.30;;;1.97;;
30247;SDS011;17063;50.892;4.702;2023-06-26T15:02:07;2.10;;;1.20;;
30247;SDS011;17063;50.892;4.702;2023-06-26T15:04:34;5.37;;;1.70;;